Time;durP1;ratioP1;P1;durP2;ratioP2;P2;SDS_P1;SDS_P2;PMS_P1;PMS_P2;Temp;Humidity;BMP_temperature;BMP_pressure;BME280_temperature;BME280_humidity;BME280_pressure;Samples;Min_cycle;Max_cycle;Signal;HPM_P1;HPM_P2
2021/11/06 00:01:54;;;;;;;10.07;7.40;;;;;;;7.82;79.71;101428.56;5127267;27;20031;-67
2021/11/06 00:04:20;;;;;;;11.18;8.05;;;;;;;7.83;80.13;101424.97;5120939;27;20055;-68
2021/11/06 00:06:45;;;;;;;9.82;7.13;;;;;;;7.85;79.54;101425.69;5135477;27;20459;-68
2021/11/06 00:09:12;;;;;;;11.98;7.63;;;;;;;7.84;79.66;101426.66;5133938;27;20038;-68
2021/11/06 00:11:38;;;;;;;11.35;8.13;;;;;;;7.93;78.55;101426.13;5115638;27;20054;-68
2021/11/06 00:14:03;;;;;;;10.82;7.53;;;;;;;7.91;79.33;101433.34;5114930;27;20023;-68
2021/11/06 00:16:29;;;;;;;9.32;6.88;;;;;;;7.90;79.22;101427.16;5147519;27;20043;-68
2021/11/06 00:18:55;;;;;;;10.18;7.97;;;;;;;7.93;78.73;101418.13;5128489;27;20036;-69
2021/11/06 00:21:21;;;;;;;10.52;7.80;;;;;;;8.03;78.53;101427.31;5122566;27;20456;-68
2021/11/06 00:23:47;;;;;;;9.32;7.07;;;;;;;7.99;78.60;101426.59;5114387;28;20048;-68
2021/11/06 00:26:12;;;;;;;11.23;7.22;;;;;;;8.02;77.67;101429.09;5120476;27;20028;-67
2021/11/06 00:28:38;;;;;;;9.98;7.50;;;;;;;8.05;77.55;101430.72;5132993;27;20015;-68
2021/11/06 00:31:03;;;;;;;9.02;6.75;;;;;;;8.05;78.09;101436.06;5123077;27;20031;-69
2021/11/06 00:33:29;;;;;;;10.27;7.30;;;;;;;8.08;77.39;101441.22;5133954;27;20038;-68
2021/11/06 00:35:54;;;;;;;9.13;7.20;;;;;;;8.05;77.15;101442.28;5132854;27;20367;-67
2021/11/06 00:38:20;;;;;;;10.43;7.05;;;;;;;8.10;77.01;101458.03;5123613;27;20059;-68
2021/11/06 00:40:45;;;;;;;10.27;7.82;;;;;;;8.07;77.81;101466.22;5122268;27;20035;-68
2021/11/06 00:43:11;;;;;;;14.60;8.05;;;;;;;8.13;77.08;101472.06;5116551;27;20035;-68
2021/11/06 00:45:36;;;;;;;10.48;7.35;;;;;;;8.11;77.86;101468.63;5133733;27;20087;-68
2021/11/06 00:48:02;;;;;;;10.20;7.95;;;;;;;8.11;77.54;101465.09;5130203;27;20119;-68
2021/11/06 00:50:28;;;;;;;9.57;7.32;;;;;;;8.09;77.80;101465.19;5114787;27;20024;-69
2021/11/06 00:52:53;;;;;;;10.05;7.47;;;;;;;8.17;77.25;101459.38;5132116;27;20351;-69
2021/11/06 00:55:20;;;;;;;9.57;6.95;;;;;;;8.12;77.06;101462.31;5114311;27;20035;-68
2021/11/06 00:57:47;;;;;;;11.32;7.68;;;;;;;8.10;77.70;101453.53;5124516;27;20035;-69
2021/11/06 01:00:14;;;;;;;12.82;8.02;;;;;;;8.13;77.90;101450.69;5134051;27;20026;-69
2021/11/06 01:02:39;;;;;;;9.00;6.97;;;;;;;8.16;77.94;101455.00;5113613;27;20081;-69
2021/11/06 01:05:06;;;;;;;9.68;7.95;;;;;;;8.17;76.94;101462.94;5115424;27;20060;-69
2021/11/06 01:07:31;;;;;;;11.00;7.40;;;;;;;8.15;77.53;101451.47;5123530;27;20032;-68
2021/11/06 01:09:57;;;;;;;12.75;7.63;;;;;;;8.16;76.98;101453.16;5113747;27;20369;-68
2021/11/06 01:12:22;;;;;;;12.15;8.43;;;;;;;8.22;76.92;101460.03;5123136;27;20031;-69
2021/11/06 01:14:48;;;;;;;9.98;7.88;;;;;;;8.19;76.49;101455.66;5133822;27;20031;-69
2021/11/06 01:17:13;;;;;;;10.15;7.45;;;;;;;8.18;77.10;101456.63;5127795;27;20052;-68
2021/11/06 01:19:39;;;;;;;12.50;7.13;;;;;;;8.19;77.16;101461.00;5130607;27;20039;-68
2021/11/06 01:22:05;;;;;;;10.98;7.72;;;;;;;8.18;76.56;101453.09;5115767;27;20049;-69
2021/11/06 01:24:30;;;;;;;9.95;7.32;;;;;;;8.20;76.69;101451.19;5115222;27;20032;-68
2021/11/06 01:26:56;;;;;;;10.30;7.35;;;;;;;8.25;76.30;101451.78;5117612;27;20031;-68
2021/11/06 01:29:24;;;;;;;8.95;6.70;;;;;;;8.22;76.36;101454.69;5125156;27;20047;-69
2021/11/06 01:31:50;;;;;;;8.80;7.30;;;;;;;8.26;76.11;101470.41;5119716;27;20200;-68
2021/11/06 01:34:16;;;;;;;11.38;7.35;;;;;;;8.25;76.27;101471.38;5124934;27;20031;-68
2021/11/06 01:36:41;;;;;;;11.90;7.38;;;;;;;8.29;76.17;101483.59;5121256;27;20020;-68
2021/11/06 01:39:07;;;;;;;10.65;7.35;;;;;;;8.27;76.62;101485.50;5121298;27;20030;-69
2021/11/06 01:41:34;;;;;;;10.10;7.43;;;;;;;8.26;76.11;101491.78;5122353;27;20027;-69
2021/11/06 01:44:00;;;;;;;11.23;7.43;;;;;;;8.26;76.51;101493.63;5145741;27;20035;-69
2021/11/06 01:46:26;;;;;;;10.13;6.78;;;;;;;8.22;76.88;101481.41;5118798;27;20019;-69
2021/11/06 01:48:51;;;;;;;9.35;7.50;;;;;;;8.23;76.83;101485.78;5113300;27;20518;-69
2021/11/06 01:51:17;;;;;;;9.85;7.35;;;;;;;8.25;76.77;101492.75;5116547;27;20396;-69
2021/11/06 01:53:44;;;;;;;10.20;7.15;;;;;;;8.24;77.00;101482.16;5127206;27;20035;-69
2021/11/06 01:56:09;;;;;;;9.05;7.40;;;;;;;8.23;76.95;101488.47;5128211;27;20024;-68
2021/11/06 01:58:35;;;;;;;11.38;6.72;;;;;;;8.21;77.34;101469.81;5115462;27;20046;-68
2021/11/06 02:01:00;;;;;;;10.68;7.72;;;;;;;8.27;76.95;101468.59;5129354;27;20087;-69
2021/11/06 02:03:26;;;;;;;9.18;6.88;;;;;;;8.23;77.74;101467.94;5116710;27;20040;-69
2021/11/06 02:05:52;;;;;;;8.65;7.22;;;;;;;8.26;77.01;101472.25;5121817;27;20031;-68
2021/11/06 02:08:18;;;;;;;9.57;7.18;;;;;;;8.25;77.89;101470.50;5123173;27;20492;-68
2021/11/06 02:10:45;;;;;;;10.60;7.20;;;;;;;8.25;77.56;101473.16;5111019;28;20031;-68
2021/11/06 02:13:12;;;;;;;9.57;7.13;;;;;;;8.24;77.35;101472.34;5130168;27;20031;-69
2021/11/06 02:15:39;;;;;;;9.43;7.63;;;;;;;8.25;77.27;101467.81;5131866;27;20427;-69
2021/11/06 02:18:05;;;;;;;10.50;7.65;;;;;;;8.28;77.57;101475.66;5132820;27;20519;-67
2021/11/06 02:20:31;;;;;;;10.90;7.55;;;;;;;8.29;77.14;101472.91;5133091;27;20462;-68
2021/11/06 02:22:57;;;;;;;8.88;6.80;;;;;;;8.30;77.02;101471.09;5124467;27;20023;-68
2021/11/06 02:25:23;;;;;;;10.00;7.72;;;;;;;8.30;77.09;101471.97;5158398;27;20034;-68
2021/11/06 02:27:50;;;;;;;9.60;7.45;;;;;;;8.30;77.14;101477.31;5124548;27;20038;-68
2021/11/06 02:30:17;;;;;;;7.78;6.40;;;;;;;8.29;76.92;101475.56;5123680;27;20351;-67
2021/11/06 02:32:45;;;;;;;12.30;7.53;;;;;;;8.30;76.80;101477.31;5111872;28;20019;-68
2021/11/06 02:35:10;;;;;;;10.43;7.25;;;;;;;8.28;76.61;101481.88;5112424;28;20028;-68
2021/11/06 02:37:36;;;;;;;10.02;7.50;;;;;;;8.24;77.46;101483.03;5115071;28;20037;-69
2021/11/06 02:40:04;;;;;;;11.98;7.57;;;;;;;8.23;77.11;101478.63;5132204;27;20035;-69
2021/11/06 02:42:29;;;;;;;11.30;7.85;;;;;;;8.20;77.84;101489.47;5114334;28;20027;-69
2021/11/06 02:44:56;;;;;;;12.88;8.43;;;;;;;8.26;77.24;101498.97;5121091;27;20027;-68
2021/11/06 02:47:24;;;;;;;11.85;8.05;;;;;;;8.21;77.75;101495.66;5124946;27;20024;-68
2021/11/06 02:49:50;;;;;;;15.02;7.90;;;;;;;8.33;76.07;101497.66;5116278;28;20087;-69
2021/11/06 02:52:16;;;;;;;9.65;7.07;;;;;;;8.28;76.93;101495.25;5132583;27;20027;-69
2021/11/06 02:54:41;;;;;;;13.07;7.68;;;;;;;8.21;77.38;101491.19;5121389;27;20019;-68
2021/11/06 02:57:12;;;;;;;10.68;7.93;;;;;;;8.24;77.46;101495.50;5121071;27;20035;-69
2021/11/06 02:59:37;;;;;;;9.13;7.70;;;;;;;8.24;77.13;101500.84;5127506;27;20031;-68
2021/11/06 03:02:03;;;;;;;11.52;8.13;;;;;;;8.26;76.96;101501.63;5125663;27;20122;-68
2021/11/06 03:04:35;;;;;;;9.90;7.35;;;;;;;8.26;77.04;101509.66;5129529;27;20043;-68
2021/11/06 03:07:01;;;;;;;12.05;7.75;;;;;;;8.27;75.56;101498.88;5124185;27;20028;-69
2021/11/06 03:09:26;;;;;;;12.15;8.48;;;;;;;8.28;76.41;101507.72;5118285;27;20019;-69
2021/11/06 03:11:51;;;;;;;10.15;7.30;;;;;;;8.30;76.46;101506.72;5129101;27;20084;-68
2021/11/06 03:14:18;;;;;;;10.00;7.65;;;;;;;8.28;76.78;101513.94;5133898;27;20083;-68
2021/11/06 03:16:44;;;;;;;10.63;6.75;;;;;;;8.29;76.44;101506.81;5115993;28;20042;-69
2021/11/06 03:19:09;;;;;;;9.73;7.30;;;;;;;8.28;76.82;101518.41;5115512;28;20483;-68
2021/11/06 03:21:35;;;;;;;9.95;7.45;;;;;;;8.25;76.17;101524.81;5131593;27;20033;-69
2021/11/06 03:24:00;;;;;;;11.05;7.40;;;;;;;8.25;75.98;101518.59;5130766;27;20098;-69
2021/11/06 03:26:26;;;;;;;10.75;7.65;;;;;;;8.20;76.40;101526.88;5135458;27;20050;-68
2021/11/06 03:28:51;;;;;;;11.57;7.75;;;;;;;8.20;76.83;101532.22;5133229;27;21045;-68
2021/11/06 03:31:17;;;;;;;9.95;7.45;;;;;;;8.17;76.24;101532.41;5131104;27;20032;-69
2021/11/06 03:33:42;;;;;;;10.73;6.95;;;;;;;8.20;76.30;101536.69;5134496;27;20039;-68
2021/11/06 03:36:08;;;;;;;10.52;6.57;;;;;;;8.19;75.76;101540.34;5135053;27;20039;-68
2021/11/06 03:38:33;;;;;;;11.27;7.55;;;;;;;8.16;75.73;101540.50;5134114;27;20023;-69
2021/11/06 03:40:59;;;;;;;9.40;7.38;;;;;;;8.12;75.95;101549.63;5131874;27;20482;-68
2021/11/06 03:43:24;;;;;;;9.52;7.40;;;;;;;8.14;76.24;101563.78;5134528;27;20501;-68
2021/11/06 03:45:50;;;;;;;8.88;7.07;;;;;;;8.09;76.68;101568.53;5133486;27;20094;-68
2021/11/06 03:48:15;;;;;;;9.80;6.75;;;;;;;8.13;76.21;101576.28;5133929;27;20023;-68
2021/11/06 03:50:41;;;;;;;10.68;7.15;;;;;;;8.10;76.28;101572.94;5129817;27;20022;-69
2021/11/06 03:53:06;;;;;;;11.55;7.18;;;;;;;8.07;75.86;101581.13;5115155;27;20080;-68
2021/11/06 03:55:33;;;;;;;8.35;6.75;;;;;;;8.09;76.54;101588.09;5115288;27;20027;-68
2021/11/06 03:57:58;;;;;;;8.82;6.20;;;;;;;7.98;76.86;101566.47;5119011;27;20046;-68
2021/11/06 04:00:24;;;;;;;10.25;7.30;;;;;;;8.01;76.64;101579.66;5149222;27;20031;-69
2021/11/06 04:02:50;;;;;;;12.80;8.20;;;;;;;8.01;77.41;101581.47;5117837;27;20035;-69
2021/11/06 04:05:16;;;;;;;8.55;6.95;;;;;;;7.97;77.27;101567.41;5133169;27;20062;-69
2021/11/06 04:07:42;;;;;;;9.93;7.28;;;;;;;7.96;77.39;101575.53;5114241;27;20039;-69
2021/11/06 04:10:08;;;;;;;8.82;6.70;;;;;;;7.98;77.59;101578.97;5114651;28;20503;-68
2021/11/06 04:12:35;;;;;;;9.88;7.03;;;;;;;7.92;78.08;101574.84;5134615;27;20104;-68
2021/11/06 04:15:01;;;;;;;9.07;7.28;;;;;;;7.89;77.90;101569.66;5121067;27;20027;-68
2021/11/06 04:17:27;;;;;;;9.77;7.00;;;;;;;7.87;77.72;101562.69;5116264;27;20119;-70
2021/11/06 04:19:52;;;;;;;10.77;7.90;;;;;;;7.85;78.59;101570.81;5124780;27;20826;-67
2021/11/06 04:22:18;;;;;;;9.68;7.18;;;;;;;7.85;78.32;101567.25;5126924;27;20075;-68
2021/11/06 04:24:43;;;;;;;9.52;7.43;;;;;;;7.80;78.26;101569.34;5134603;27;20023;-68
2021/11/06 04:27:09;;;;;;;11.73;8.18;;;;;;;7.76;78.47;101565.97;5133148;27;20022;-69
2021/11/06 04:29:35;;;;;;;12.05;8.15;;;;;;;7.79;78.67;101578.28;5135078;27;20023;-68
2021/11/06 04:32:02;;;;;;;12.45;8.88;;;;;;;7.75;78.89;101572.28;5120027;27;20031;-69
2021/11/06 04:34:28;;;;;;;12.55;9.35;;;;;;;7.72;79.08;101579.59;5128797;27;20035;-67
2021/11/06 04:36:53;;;;;;;10.90;8.20;;;;;;;7.72;78.67;101575.13;5131807;27;20035;-68
2021/11/06 04:39:19;;;;;;;10.40;7.80;;;;;;;7.65;79.04;101578.22;5118213;27;20015;-69
2021/11/06 04:41:44;;;;;;;12.13;7.88;;;;;;;7.60;80.65;101582.94;5123212;27;20050;-68
2021/11/06 04:44:10;;;;;;;10.30;8.07;;;;;;;7.55;81.12;101577.00;5114121;28;20055;-69
2021/11/06 04:46:35;;;;;;;11.00;7.97;;;;;;;7.47;81.04;101568.53;5116928;27;20030;-68
2021/11/06 04:49:02;;;;;;;10.02;7.60;;;;;;;7.44;81.63;101572.25;5132491;27;20025;-68
2021/11/06 04:51:28;;;;;;;11.38;8.07;;;;;;;7.37;82.19;101575.31;5134171;27;20039;-69
2021/11/06 04:53:53;;;;;;;9.48;7.30;;;;;;;7.33;82.76;101579.97;5133871;27;20122;-69
2021/11/06 04:56:18;;;;;;;9.60;7.45;;;;;;;7.28;83.03;101574.03;5129932;27;20805;-69
2021/11/06 04:58:44;;;;;;;9.20;7.65;;;;;;;7.23;83.26;101573.44;5124497;27;20459;-68
2021/11/06 05:01:10;;;;;;;11.75;7.65;;;;;;;7.14;82.54;101568.59;5119607;27;20494;-69
2021/11/06 05:03:35;;;;;;;10.70;7.82;;;;;;;7.07;82.86;101569.00;5122554;27;20104;-68
2021/11/06 05:06:00;;;;;;;10.07;7.78;;;;;;;7.06;82.69;101580.59;5130310;27;20035;-68
2021/11/06 05:08:26;;;;;;;11.50;8.20;;;;;;;7.04;83.06;101591.38;5134125;27;20011;-68
2021/11/06 05:10:52;;;;;;;11.35;8.43;;;;;;;6.95;83.25;101587.38;5119374;27;20028;-69
2021/11/06 05:13:18;;;;;;;11.35;7.38;;;;;;;6.87;83.73;101586.91;5124034;27;20023;-68
2021/11/06 05:15:45;;;;;;;10.77;8.43;;;;;;;6.86;83.88;101592.31;5125415;27;20034;-69
2021/11/06 05:18:13;;;;;;;9.93;7.55;;;;;;;6.82;83.97;101598.75;5132729;27;20082;-68
2021/11/06 05:20:39;;;;;;;15.23;8.75;;;;;;;6.77;84.00;101606.13;5131897;27;20019;-68
2021/11/06 05:23:05;;;;;;;12.95;8.50;;;;;;;6.72;84.98;101614.38;5129778;27;20036;-68
2021/11/06 05:25:31;;;;;;;11.45;8.35;;;;;;;6.67;85.50;101613.75;5123369;27;20027;-68
2021/11/06 05:27:56;;;;;;;11.77;8.02;;;;;;;6.60;85.90;101614.13;5125991;27;20106;-68
2021/11/06 05:30:22;;;;;;;12.73;8.75;;;;;;;6.56;85.63;101612.56;5126147;27;20031;-69
2021/11/06 05:32:48;;;;;;;16.55;9.90;;;;;;;6.50;85.99;101624.41;5131476;27;20091;-68
2021/11/06 05:35:14;;;;;;;17.73;10.80;;;;;;;6.46;86.98;101627.28;5132824;27;20043;-68
2021/11/06 05:37:40;;;;;;;14.25;9.40;;;;;;;6.40;86.60;101638.25;5130094;27;20034;-69
2021/11/06 05:40:07;;;;;;;19.38;12.05;;;;;;;6.33;86.65;101643.03;5129114;27;20050;-69
2021/11/06 05:42:33;;;;;;;18.15;11.30;;;;;;;6.26;86.84;101646.06;5124208;27;20341;-69
2021/11/06 05:44:59;;;;;;;18.38;12.02;;;;;;;6.21;87.51;101654.28;5121915;27;20044;-68
2021/11/06 05:47:25;;;;;;;18.52;11.38;;;;;;;6.18;87.88;101665.09;5127369;27;20015;-68
2021/11/06 05:49:50;;;;;;;18.52;11.45;;;;;;;6.12;88.32;101673.38;5129460;27;20030;-68
2021/11/06 05:52:16;;;;;;;17.75;11.68;;;;;;;6.06;88.25;101671.00;5127442;27;20428;-68
2021/11/06 05:54:41;;;;;;;17.83;11.80;;;;;;;6.06;88.92;101675.47;5128677;27;20519;-68
2021/11/06 05:57:07;;;;;;;20.98;12.13;;;;;;;6.02;89.30;101668.56;5131216;27;20031;-69
2021/11/06 05:59:32;;;;;;;17.55;12.02;;;;;;;6.03;89.99;101675.63;5131939;27;21045;-68
2021/11/06 06:01:58;;;;;;;19.67;13.00;;;;;;;6.01;90.09;101677.50;5112722;27;20023;-68
2021/11/06 06:04:23;;;;;;;17.70;11.73;;;;;;;5.99;90.41;101674.03;5122292;27;20056;-68
2021/11/06 06:06:49;;;;;;;19.35;11.82;;;;;;;5.96;91.08;101672.38;5128082;27;20031;-69
2021/11/06 06:09:16;;;;;;;18.05;12.38;;;;;;;5.96;91.58;101679.50;5120106;27;20049;-68
2021/11/06 06:11:41;;;;;;;15.82;11.60;;;;;;;5.97;91.25;101682.06;5127982;27;20019;-68
2021/11/06 06:14:06;;;;;;;16.08;11.40;;;;;;;6.00;91.79;101692.59;5129720;27;20027;-68
2021/11/06 06:16:32;;;;;;;16.42;11.68;;;;;;;5.98;91.25;101683.81;5128033;27;20467;-68
2021/11/06 06:18:58;;;;;;;19.15;12.80;;;;;;;6.05;90.97;101698.56;5130762;27;20471;-68
2021/11/06 06:21:23;;;;;;;17.17;12.13;;;;;;;6.06;90.66;101694.13;5132156;27;20034;-68
2021/11/06 06:23:49;;;;;;;16.23;11.18;;;;;;;6.09;89.49;101710.81;5130559;27;20027;-69
2021/11/06 06:26:15;;;;;;;16.52;11.25;;;;;;;6.13;89.46;101716.88;5122589;27;20109;-68
2021/11/06 06:28:40;;;;;;;21.95;12.43;;;;;;;6.12;89.60;101713.31;5127103;27;20028;-69
2021/11/06 06:31:06;;;;;;;24.10;12.75;;;;;;;6.14;90.11;101716.78;5116903;27;20463;-69
2021/11/06 06:33:32;;;;;;;32.40;16.13;;;;;;;6.13;90.27;101720.38;5119252;28;20046;-68
2021/11/06 06:35:57;;;;;;;24.83;13.35;;;;;;;6.14;90.88;101726.56;5112071;28;20540;-68
2021/11/06 06:38:23;;;;;;;21.20;12.57;;;;;;;6.15;90.93;101729.16;5113996;28;20106;-69
2021/11/06 06:40:49;;;;;;;20.80;13.25;;;;;;;6.13;90.70;101719.53;5123252;27;20031;-69
2021/11/06 06:43:14;;;;;;;20.98;12.90;;;;;;;6.18;90.94;101734.34;5123449;28;20119;-69
2021/11/06 06:45:40;;;;;;;16.40;12.25;;;;;;;6.19;91.16;101728.06;5113958;27;20046;-70
2021/11/06 06:48:05;;;;;;;17.25;11.50;;;;;;;6.19;90.78;101732.56;5118097;28;20031;-68
2021/11/06 06:50:31;;;;;;;15.70;11.15;;;;;;;6.23;90.97;101732.31;5125868;27;20016;-69
2021/11/06 06:52:56;;;;;;;18.17;11.63;;;;;;;6.26;90.81;101739.31;5112127;28;20032;-69
2021/11/06 06:55:22;;;;;;;18.88;11.98;;;;;;;6.31;90.95;101751.47;5122176;27;20023;-69
2021/11/06 06:57:48;;;;;;;18.20;12.90;;;;;;;6.34;91.15;101758.44;5115753;28;20046;-70
2021/11/06 07:00:14;;;;;;;28.40;15.88;;;;;;;6.33;90.87;101749.63;5110498;28;20463;-68
2021/11/06 07:02:40;;;;;;;31.45;17.20;;;;;;;6.45;90.75;101765.00;5111737;28;20101;-68
2021/11/06 07:05:08;;;;;;;27.05;16.48;;;;;;;6.54;90.90;101761.03;5111326;28;20090;-69
2021/11/06 07:07:34;;;;;;;34.13;18.60;;;;;;;6.60;90.80;101766.94;5111886;28;20034;-68
2021/11/06 07:10:00;;;;;;;36.53;18.50;;;;;;;6.75;89.27;101768.84;5111216;28;20036;-68
2021/11/06 07:12:26;;;;;;;31.80;17.35;;;;;;;6.87;88.02;101768.25;5121753;27;20479;-69
2021/11/06 07:14:53;;;;;;;31.10;16.42;;;;;;;6.92;88.18;101768.00;5131026;27;20412;-68
2021/11/06 07:17:19;;;;;;;29.20;15.82;;;;;;;6.94;88.20;101769.66;5124991;27;20038;-69
2021/11/06 07:19:44;;;;;;;24.52;13.52;;;;;;;7.02;88.78;101765.78;5111560;28;20027;-69
2021/11/06 07:22:10;;;;;;;21.70;12.65;;;;;;;7.15;88.62;101774.88;5110078;28;20414;-69
2021/11/06 07:24:36;;;;;;;18.85;11.90;;;;;;;7.18;88.71;101774.69;5121802;28;20468;-69
2021/11/06 07:27:05;;;;;;;22.55;12.55;;;;;;;7.17;89.27;101770.31;5110105;28;20019;-69
2021/11/06 07:29:31;;;;;;;27.75;15.07;;;;;;;7.19;89.50;101777.28;5111457;28;20028;-69
2021/11/06 07:31:57;;;;;;;28.15;14.73;;;;;;;7.20;89.17;101775.50;5110000;28;20363;-68
2021/11/06 07:34:23;;;;;;;35.00;16.08;;;;;;;7.23;88.63;101781.56;5109819;28;20027;-69
2021/11/06 07:36:49;;;;;;;27.50;15.25;;;;;;;7.31;87.92;101774.00;5111384;28;20050;-69
2021/11/06 07:39:15;;;;;;;26.27;14.20;;;;;;;7.37;85.92;101772.81;5117641;28;20023;-68
2021/11/06 07:41:40;;;;;;;25.98;13.77;;;;;;;7.48;85.15;101784.66;5131876;27;20419;-71
2021/11/06 07:44:06;;;;;;;20.60;12.40;;;;;;;7.54;84.56;101783.50;5132708;27;20780;-69
2021/11/06 07:46:32;;;;;;;20.67;11.55;;;;;;;7.60;84.45;101786.72;5121220;27;20051;-69
2021/11/06 07:48:58;;;;;;;17.58;12.52;;;;;;;7.58;84.46;101775.25;5113704;28;20035;-69
2021/11/06 07:51:27;;;;;;;18.58;11.32;;;;;;;7.68;83.79;101788.97;5123198;27;20026;-69
2021/11/06 07:53:52;;;;;;;21.10;11.65;;;;;;;7.67;83.57;101776.59;5125264;27;20030;-69
2021/11/06 07:56:18;;;;;;;19.75;12.57;;;;;;;7.74;83.42;101786.00;5114657;28;20023;-68
2021/11/06 07:58:43;;;;;;;16.45;11.00;;;;;;;7.82;83.40;101787.31;5114854;28;20103;-68
2021/11/06 08:01:09;;;;;;;15.48;10.95;;;;;;;7.88;83.11;101780.78;5127521;27;20079;-69
2021/11/06 08:03:34;;;;;;;15.93;10.75;;;;;;;8.04;81.50;101787.03;5135055;27;20406;-70
2021/11/06 08:06:00;;;;;;;16.27;11.40;;;;;;;8.15;79.83;101795.31;5135102;27;20090;-68
2021/11/06 08:08:26;;;;;;;15.93;10.43;;;;;;;8.16;79.68;101781.88;5134855;27;20041;-69
2021/11/06 08:10:51;;;;;;;14.00;10.30;;;;;;;8.26;79.81;101792.97;5121529;27;20031;-68
2021/11/06 08:13:16;;;;;;;16.20;10.00;;;;;;;8.36;78.54;101786.16;5120657;27;20400;-69
2021/11/06 08:15:42;;;;;;;13.65;9.95;;;;;;;8.43;78.41;101793.75;5112839;27;20031;-69
2021/11/06 08:18:08;;;;;;;15.77;10.02;;;;;;;8.51;77.13;101790.63;5114124;27;20038;-68
2021/11/06 08:20:35;;;;;;;14.18;9.02;;;;;;;8.59;76.46;101789.28;5115446;27;20101;-68
2021/11/06 08:23:00;;;;;;;14.20;9.85;;;;;;;8.63;76.94;101789.97;5114001;28;20024;-69
2021/11/06 08:25:26;;;;;;;14.32;10.60;;;;;;;8.73;77.06;101788.47;5112768;28;20498;-69
2021/11/06 08:27:54;;;;;;;15.35;10.23;;;;;;;8.81;77.00;101786.25;5125642;27;20026;-69
2021/11/06 08:30:21;;;;;;;16.05;10.18;;;;;;;8.96;75.40;101793.38;5134470;27;20027;-70
2021/11/06 08:32:49;;;;;;;11.32;9.43;;;;;;;9.04;75.27;101801.84;5134466;27;20027;-70
2021/11/06 08:35:16;;;;;;;14.30;10.48;;;;;;;9.11;74.82;101789.81;5133212;27;20087;-69
2021/11/06 08:37:42;;;;;;;14.65;10.10;;;;;;;9.18;74.74;101792.06;5134507;27;20106;-68
2021/11/06 08:40:08;;;;;;;14.13;10.88;;;;;;;9.29;73.77;101796.78;5122465;27;20157;-69
2021/11/06 08:42:34;;;;;;;17.35;10.90;;;;;;;9.37;73.56;101791.81;5134322;27;20107;-69
2021/11/06 08:45:02;;;;;;;21.08;12.02;;;;;;;9.46;73.82;101793.97;5134076;27;20054;-70
2021/11/06 08:47:28;;;;;;;16.08;11.70;;;;;;;9.55;73.57;101796.09;5134401;27;20024;-69
2021/11/06 08:49:53;;;;;;;17.40;11.68;;;;;;;9.62;72.23;101788.53;5132792;27;20025;-68
2021/11/06 08:52:20;;;;;;;17.42;11.70;;;;;;;9.69;71.97;101789.88;5125510;27;20034;-69
2021/11/06 08:54:49;;;;;;;16.75;11.60;;;;;;;9.64;73.07;101787.47;5112780;28;20027;-70
2021/11/06 08:57:17;;;;;;;15.40;11.48;;;;;;;9.67;72.73;101795.34;5113087;28;20027;-68
2021/11/06 08:59:43;;;;;;;15.85;11.30;;;;;;;9.65;73.16;101789.22;5113208;28;20414;-67
2021/11/06 09:02:10;;;;;;;17.75;12.15;;;;;;;9.61;73.37;101795.69;5112907;28;20035;-68
2021/11/06 09:04:36;;;;;;;21.58;12.27;;;;;;;9.56;74.11;101794.25;5113036;28;20445;-68
2021/11/06 09:07:03;;;;;;;16.30;11.45;;;;;;;9.50;74.61;101787.47;5146074;27;20495;-68
2021/11/06 09:09:28;;;;;;;19.77;11.95;;;;;;;9.50;74.96;101782.09;5116605;27;20023;-69
2021/11/06 09:11:54;;;;;;;16.15;11.40;;;;;;;9.56;75.29;101788.91;5132191;27;20046;-69
2021/11/06 09:14:20;;;;;;;12.77;9.65;;;;;;;9.55;75.46;101787.19;5132351;27;20070;-69
2021/11/06 09:16:46;;;;;;;13.45;9.82;;;;;;;9.53;75.90;101789.97;5131145;27;20035;-69
2021/11/06 09:19:12;;;;;;;11.90;8.77;;;;;;;9.56;74.77;101800.50;5132006;27;20479;-69
2021/11/06 09:21:39;;;;;;;12.32;9.18;;;;;;;9.57;74.25;101801.38;5133555;27;20115;-70
2021/11/06 09:24:04;;;;;;;11.23;8.25;;;;;;;9.57;73.79;101804.03;5123986;27;20479;-70
2021/11/06 09:26:35;;;;;;;11.95;8.68;;;;;;;9.58;73.16;101800.41;5112763;28;20012;-70
2021/11/06 09:29:01;;;;;;;14.07;9.10;;;;;;;9.66;73.00;101807.00;5112822;28;20460;-70
2021/11/06 09:31:28;;;;;;;14.02;8.35;;;;;;;9.73;73.38;101815.53;5116960;27;20054;-70
2021/11/06 09:33:54;;;;;;;11.48;7.75;;;;;;;9.77;72.67;101820.59;5131248;27;20077;-70
2021/11/06 09:36:19;;;;;;;11.95;7.47;;;;;;;9.81;72.99;101819.50;5133511;27;20153;-69
2021/11/06 09:38:45;;;;;;;9.00;7.35;;;;;;;9.87;73.47;101807.53;5133286;27;20019;-68
2021/11/06 09:41:12;;;;;;;9.88;7.65;;;;;;;9.94;72.70;101806.19;5133153;27;20411;-68
2021/11/06 09:43:40;;;;;;;9.05;7.47;;;;;;;10.04;72.88;101810.03;5132446;27;20406;-69
2021/11/06 09:46:09;;;;;;;12.00;7.85;;;;;;;10.13;71.66;101801.47;5131384;27;20379;-68
2021/11/06 09:48:35;;;;;;;8.88;7.30;;;;;;;10.29;70.27;101821.00;5131870;27;20019;-68
2021/11/06 09:51:00;;;;;;;11.15;7.88;;;;;;;10.39;70.52;101817.66;5133389;27;20109;-69
2021/11/06 09:53:37;;;;;;;13.65;8.43;;;;;;;10.47;70.73;101806.41;5133327;27;20079;-69
2021/11/06 09:56:04;;;;;;;10.20;8.15;;;;;;;10.46;69.81;101796.63;5122368;27;20030;-69
2021/11/06 09:58:30;;;;;;;11.48;8.30;;;;;;;10.62;69.45;101806.31;5125054;27;20042;-69
2021/11/06 10:00:56;;;;;;;12.05;7.25;;;;;;;10.65;68.89;101792.69;5118667;27;20019;-70
2021/11/06 10:03:21;;;;;;;10.30;7.53;;;;;;;10.71;67.78;101778.00;5120787;27;20047;-70
2021/11/06 10:05:51;;;;;;;10.93;7.22;;;;;;;10.76;68.32;101774.06;5112706;27;20094;-71
2021/11/06 10:08:35;;;;;;;11.52;7.43;;;;;;;10.82;66.97;101764.72;5123516;27;20059;-69
2021/11/06 10:11:04;;;;;;;11.20;6.97;;;;;;;10.89;67.51;101766.91;5114486;27;20110;-69
2021/11/06 10:13:30;;;;;;;9.50;6.15;;;;;;;10.98;65.96;101769.00;5116601;27;20092;-68
2021/11/06 10:15:59;;;;;;;9.88;6.28;;;;;;;11.04;65.33;101762.34;5116049;27;20035;-68
2021/11/06 10:18:27;;;;;;;7.90;6.25;;;;;;;11.05;64.09;101759.56;5115629;27;20106;-68
2021/11/06 10:20:59;;;;;;;7.82;5.40;;;;;;;11.11;62.38;101750.22;5134869;27;20079;-68
2021/11/06 10:23:35;;;;;;;7.28;5.28;;;;;;;11.20;62.39;101758.56;5121502;27;20019;-67
2021/11/06 10:26:19;;;;;;;9.35;5.53;;;;;;;11.30;62.52;101756.97;5117850;27;20030;-69
2021/11/06 10:28:52;;;;;;;7.20;5.68;;;;;;;11.34;62.12;101754.91;5150951;27;20052;-68
2021/11/06 10:31:17;;;;;;;6.43;5.03;;;;;;;11.47;60.72;101766.53;5121058;27;20375;-68
2021/11/06 10:33:49;;;;;;;7.50;5.35;;;;;;;11.54;60.82;101759.75;5122696;27;20084;-69
2021/11/06 10:36:26;;;;;;;7.85;5.80;;;;;;;11.60;60.46;101745.91;5124434;28;20031;-70
2021/11/06 10:39:11;;;;;;;8.45;5.18;;;;;;;11.67;60.84;101725.72;5127281;28;20023;-70
2021/11/06 10:41:39;;;;;;;5.60;5.03;;;;;;;11.72;60.63;101715.53;5129695;27;20027;-69
2021/11/06 10:44:06;;;;;;;7.22;5.88;;;;;;;11.79;60.39;101700.69;5124601;27;20038;-68
2021/11/06 10:46:32;;;;;;;7.18;5.55;;;;;;;11.85;59.77;101699.38;5125565;28;20059;-70
2021/11/06 10:49:00;;;;;;;8.15;5.78;;;;;;;11.91;59.48;101694.44;5123388;27;20027;-70
2021/11/06 10:51:25;;;;;;;9.48;6.85;;;;;;;12.00;58.45;101698.31;5128717;27;20046;-70
2021/11/06 10:53:54;;;;;;;8.75;6.30;;;;;;;11.94;58.40;101686.16;5129939;27;20096;-69
2021/11/06 10:56:35;;;;;;;6.68;5.03;;;;;;;12.08;57.58;101710.22;5120767;27;20031;-69
2021/11/06 10:59:06;;;;;;;11.18;5.15;;;;;;;12.13;57.54;101712.59;5125701;27;20035;-70
2021/11/06 11:01:37;;;;;;;6.30;5.10;;;;;;;12.08;57.77;101704.84;5130962;27;20034;-70
2021/11/06 11:04:11;;;;;;;9.55;5.35;;;;;;;12.13;57.22;101713.47;5126558;27;20055;-69
2021/11/06 11:06:45;;;;;;;7.30;5.57;;;;;;;12.17;57.21;101708.69;5131151;27;20035;-69
2021/11/06 11:09:37;;;;;;;6.20;5.05;;;;;;;12.23;57.72;101708.25;5128207;27;20701;-67
2021/11/06 11:12:13;;;;;;;7.32;4.82;;;;;;;12.27;55.87;101710.63;5123137;27;20073;-69
2021/11/06 11:14:59;;;;;;;6.32;5.07;;;;;;;12.30;56.63;101723.84;5128080;28;20106;-69
2021/11/06 11:17:44;;;;;;;6.88;5.28;;;;;;;12.32;57.12;101716.50;5130437;27;20443;-70
2021/11/06 11:20:27;;;;;;;8.27;5.20;;;;;;;12.34;56.12;101719.09;5130898;27;20378;-68
2021/11/06 11:23:12;;;;;;;7.10;4.90;;;;;;;12.32;55.72;101704.91;5125525;27;20043;-69